Time;durP1;ratioP1;P1;durP2;ratioP2;P2;SDS_P1;SDS_P2;PMS_P1;PMS_P2;Temp;Humidity;BMP_temperature;BMP_pressure;BME280_temperature;BME280_humidity;BME280_pressure;Samples;Min_cycle;Max_cycle;Signal;HPM_P1;HPM_P2
2023/03/20 00:00:46;;;;;;;2.77;2.00;;;10.90;98.00;;;;;;5052912;28;20460;-66
2023/03/20 00:03:14;;;;;;;3.93;2.30;;;11.10;98.00;;;;;;5052840;28;20949;-66
2023/03/20 00:05:41;;;;;;;4.40;2.33;;;11.10;98.00;;;;;;5052883;28;20479;-66
2023/03/20 00:08:11;;;;;;;2.80;2.23;;;11.00;98.00;;;;;;5052570;28;20471;-66
2023/03/20 00:10:42;;;;;;;3.80;2.20;;;11.00;98.00;;;;;;5052999;28;20457;-66
2023/03/20 00:13:22;;;;;;;2.63;2.10;;;11.10;98.00;;;;;;5052476;28;20492;-65
2023/03/20 00:15:49;;;;;;;2.80;1.87;;;11.10;98.00;;;;;;5052700;28;20461;-66
2023/03/20 00:18:18;;;;;;;3.33;2.43;;;10.80;98.00;;;;;;5052627;28;20459;-65
2023/03/20 00:20:46;;;;;;;2.80;2.13;;;10.70;98.00;;;;;;5052830;28;20455;-66
2023/03/20 00:23:13;;;;;;;5.27;2.30;;;10.60;98.00;;;;;;5052715;28;20480;-66
2023/03/20 00:25:41;;;;;;;2.70;2.10;;;10.60;98.00;;;;;;5051434;28;20466;-66
2023/03/20 00:28:37;;;;;;;4.33;2.43;;;10.60;98.00;;;;;;5052419;28;20458;-66
2023/03/20 00:31:05;;;;;;;3.93;2.13;;;10.60;98.00;;;;;;5052729;28;20909;-66
2023/03/20 00:33:32;;;;;;;5.10;2.50;;;10.70;98.00;;;;;;5052162;28;20488;-66
2023/03/20 00:36:01;;;;;;;4.27;2.10;;;10.80;98.00;;;;;;5052266;28;20468;-66
2023/03/20 00:38:28;;;;;;;4.40;2.53;;;10.80;98.00;;;;;;5052088;28;20973;-66
2023/03/20 00:40:55;;;;;;;5.47;3.40;;;11.00;98.00;;;;;;5052154;28;20524;-66
2023/03/20 00:43:24;;;;;;;4.00;2.50;;;11.20;98.00;;;;;;5052096;28;20654;-66
2023/03/20 00:45:51;;;;;;;4.10;2.20;;;11.20;98.00;;;;;;5051948;28;20979;-66
2023/03/20 00:48:18;;;;;;;3.50;2.40;;;11.10;98.00;;;;;;5051889;28;20520;-66
2023/03/20 00:50:45;;;;;;;5.90;2.90;;;11.10;98.00;;;;;;5052136;28;20461;-66
2023/03/20 00:53:13;;;;;;;2.50;1.90;;;11.10;98.00;;;;;;5051937;28;20484;-65
2023/03/20 00:55:41;;;;;;;2.83;2.30;;;11.10;98.00;;;;;;5051944;28;20462;-66
2023/03/20 00:58:11;;;;;;;3.07;2.07;;;11.00;98.00;;;;;;5051854;28;20879;-66
2023/03/20 01:00:42;;;;;;;3.73;2.30;;;11.00;98.00;;;;;;5051845;28;20459;-66
2023/03/20 01:03:16;;;;;;;2.70;2.00;;;11.00;98.00;;;;;;5034046;28;20465;-66
2023/03/20 01:05:44;;;;;;;3.20;2.20;;;11.00;98.00;;;;;;5051671;28;20455;-66
2023/03/20 01:08:13;;;;;;;3.27;2.03;;;11.00;98.00;;;;;;5051580;28;20475;-66
2023/03/20 01:10:41;;;;;;;1.60;1.57;;;11.00;98.00;;;;;;5051483;28;20995;-66
2023/03/20 01:13:16;;;;;;;2.43;1.60;;;11.00;98.00;;;;;;5033618;28;20483;-66
2023/03/20 01:15:46;;;;;;;2.10;1.60;;;11.00;98.00;;;;;;5051680;28;20473;-66
2023/03/20 01:18:14;;;;;;;2.37;1.90;;;11.00;98.00;;;;;;5051759;28;20465;-66
2023/03/20 01:20:45;;;;;;;2.40;1.40;;;11.10;98.00;;;;;;5051563;28;20809;-66
2023/03/20 01:23:14;;;;;;;1.97;1.43;;;11.10;98.00;;;;;;5051463;28;20490;-66
2023/03/20 01:25:41;;;;;;;2.10;1.63;;;11.30;98.00;;;;;;5051420;28;20458;-65
2023/03/20 01:28:17;;;;;;;3.20;1.90;;;11.30;98.00;;;;;;5051246;28;20462;-66
2023/03/20 01:30:45;;;;;;;1.80;1.53;;;11.20;98.00;;;;;;5051355;28;20457;-66
2023/03/20 01:33:15;;;;;;;2.87;1.90;;;11.30;98.00;;;;;;5051246;28;20485;-66
2023/03/20 01:35:43;;;;;;;2.30;1.60;;;11.20;98.00;;;;;;5051515;28;20471;-66
2023/03/20 01:38:13;;;;;;;2.20;1.53;;;11.00;98.00;;;;;;5050851;28;20954;-66
2023/03/20 01:40:48;;;;;;;1.83;1.70;;;11.00;98.00;;;;;;5051326;28;20451;-66
2023/03/20 01:43:18;;;;;;;2.60;1.67;;;10.90;98.00;;;;;;5051105;28;20544;-66
2023/03/20 01:45:55;;;;;;;2.50;1.63;;;10.90;98.00;;;;;;5051203;28;20501;-66
2023/03/20 01:48:25;;;;;;;3.33;2.13;;;10.80;98.00;;;;;;5051134;28;20496;-66
2023/03/20 01:50:52;;;;;;;1.90;1.43;;;10.80;98.00;;;;;;5051024;28;20461;-66
2023/03/20 01:53:23;;;;;;;1.60;1.40;;;10.70;98.00;;;;;;5050967;28;20491;-66
2023/03/20 01:55:53;;;;;;;2.77;1.97;;;10.60;98.00;;;;;;5050881;28;20464;-66
2023/03/20 01:58:25;;;;;;;3.13;1.73;;;10.60;98.00;;;;;;5050940;28;20450;-66
2023/03/20 02:00:57;;;;;;;2.73;1.70;;;10.60;98.00;;;;;;5051065;28;20889;-66
2023/03/20 02:03:25;;;;;;;2.00;1.77;;;10.50;98.00;;;;;;5033580;28;20550;-66
2023/03/20 02:05:53;;;;;;;3.63;2.03;;;10.40;98.00;;;;;;5050740;28;20479;-66
2023/03/20 02:08:26;;;;;;;2.90;1.83;;;10.40;98.00;;;;;;5033527;28;20532;-66
2023/03/20 02:10:54;;;;;;;3.57;2.10;;;10.30;98.00;;;;;;5050777;28;20465;-66
2023/03/20 02:13:21;;;;;;;2.03;1.73;;;10.20;98.00;;;;;;5050826;28;20519;-66
2023/03/20 02:16:04;;;;;;;4.70;1.70;;;10.20;98.00;;;;;;5050962;28;20484;-66
2023/03/20 02:18:32;;;;;;;2.50;1.60;;;10.20;98.00;;;;;;5051153;28;20841;-66
2023/03/20 02:21:37;;;;;;;1.73;1.50;;;10.30;98.00;;;;;;5050754;28;20464;-66
2023/03/20 02:24:42;;;;;;;2.60;1.60;;;10.20;98.00;;;;;;5048212;28;20863;-66
2023/03/20 02:27:18;;;;;;;2.73;1.43;;;10.40;98.00;;;;;;5039389;28;20535;-66
2023/03/20 02:30:23;;;;;;;2.90;1.93;;;10.80;98.00;;;;;;5050646;28;20465;-65
2023/03/20 02:33:23;;;;;;;2.60;1.63;;;10.80;98.00;;;;;;5050381;28;20489;-66
2023/03/20 02:36:13;;;;;;;1.40;1.40;;;10.60;98.00;;;;;;5050661;28;20466;-66
2023/03/20 02:39:19;;;;;;;2.23;1.37;;;10.50;98.00;;;;;;5050526;28;20995;-66
2023/03/20 02:41:54;;;;;;;2.60;1.50;;;10.30;98.00;;;;;;5019363;28;20808;-66
2023/03/20 02:44:27;;;;;;;4.07;1.60;;;10.40;98.00;;;;;;5032871;28;20450;-66
2023/03/20 02:47:01;;;;;;;2.47;1.70;;;10.40;98.00;;;;;;5050347;28;20458;-66
2023/03/20 02:49:44;;;;;;;3.10;1.70;;;10.40;98.00;;;;;;5052108;28;20526;-66
2023/03/20 02:52:20;;;;;;;2.97;1.77;;;10.40;98.00;;;;;;5054100;28;20459;-66
2023/03/20 02:54:56;;;;;;;1.60;1.40;;;10.40;98.00;;;;;;5054043;28;20512;-66
2023/03/20 02:57:30;;;;;;;2.60;1.90;;;10.40;98.00;;;;;;5054055;28;20463;-66
2023/03/20 03:00:09;;;;;;;3.73;2.17;;;10.50;98.00;;;;;;5054111;28;20543;-65
2023/03/20 03:02:39;;;;;;;2.40;1.90;;;10.60;98.00;;;;;;5054094;28;20460;-66
2023/03/20 03:05:12;;;;;;;2.10;1.80;;;10.40;98.00;;;;;;5054089;28;20458;-66
2023/03/20 03:07:45;;;;;;;2.60;1.60;;;10.40;98.00;;;;;;5053787;28;21002;-65
2023/03/20 03:12:53;;;;;;;3.10;1.80;;;10.30;98.00;;;;;;5109471;22;20590;-70
2023/03/20 03:15:25;;;;;;;3.37;1.60;;;10.20;98.00;;;;;;5074018;28;20466;-70
2023/03/20 03:17:52;;;;;;;3.13;2.00;;;10.20;98.00;;;;;;5073747;28;20550;-69
2023/03/20 03:20:22;;;;;;;3.83;2.23;;;10.30;98.00;;;;;;5073798;28;20505;-71
2023/03/20 03:22:50;;;;;;;7.70;2.20;;;10.20;98.00;;;;;;5073654;28;20457;-70
2023/03/20 03:25:18;;;;;;;3.00;1.93;;;10.30;98.00;;;;;;5073700;28;20457;-70
2023/03/20 03:27:47;;;;;;;4.97;2.17;;;10.30;98.00;;;;;;5073596;28;20519;-68
2023/03/20 03:30:20;;;;;;;2.57;1.80;;;10.30;98.00;;;;;;5073637;28;21020;-69
2023/03/20 03:32:49;;;;;;;3.73;1.90;;;10.30;98.00;;;;;;5073497;28;20493;-68
2023/03/20 03:35:20;;;;;;;2.57;1.70;;;10.50;98.00;;;;;;5072285;28;21007;-68
2023/03/20 03:37:55;;;;;;;3.63;2.03;;;10.50;98.00;;;;;;5072252;28;20853;-69
2023/03/20 03:40:31;;;;;;;2.50;1.83;;;10.40;98.00;;;;;;5073573;28;20453;-68
2023/03/20 03:43:02;;;;;;;2.93;2.27;;;10.40;98.00;;;;;;5073222;28;20453;-68
2023/03/20 03:45:35;;;;;;;4.33;2.00;;;10.40;98.00;;;;;;5073396;28;20467;-69
2023/03/20 03:48:07;;;;;;;2.10;1.63;;;10.40;98.00;;;;;;5073124;28;20492;-70
2023/03/20 03:50:38;;;;;;;3.10;1.90;;;10.40;98.00;;;;;;5073475;28;20462;-70
2023/03/20 03:53:10;;;;;;;5.23;1.93;;;10.40;98.00;;;;;;5072925;28;20993;-68
2023/03/20 03:55:40;;;;;;;4.60;2.70;;;10.30;98.00;;;;;;5073222;28;20966;-70
2023/03/20 03:58:13;;;;;;;2.93;1.63;;;10.30;98.00;;;;;;5073127;28;20453;-70
2023/03/20 04:00:46;;;;;;;4.87;1.97;;;10.30;98.00;;;;;;5073068;28;20729;-70
2023/03/20 04:03:15;;;;;;;3.93;2.10;;;10.30;98.00;;;;;;5072939;28;20807;-70
2023/03/20 04:05:45;;;;;;;2.77;2.10;;;10.20;98.00;;;;;;5073112;28;20451;-70
2023/03/20 04:08:15;;;;;;;3.00;2.10;;;10.30;98.00;;;;;;5073015;28;20462;-71
2023/03/20 04:10:42;;;;;;;3.47;2.23;;;10.30;98.00;;;;;;5072800;28;20507;-69
2023/03/20 04:13:09;;;;;;;3.13;1.87;;;10.30;98.00;;;;;;5072323;28;20494;-69
2023/03/20 04:15:37;;;;;;;2.23;1.77;;;10.30;98.00;;;;;;5072916;28;20474;-70
2023/03/20 04:18:05;;;;;;;1.90;1.50;;;10.20;98.00;;;;;;5071617;28;20451;-69
2023/03/20 04:20:32;;;;;;;4.83;2.03;;;10.20;98.00;;;;;;5072684;28;20472;-70
2023/03/20 04:23:00;;;;;;;4.03;1.90;;;10.20;98.00;;;;;;5072399;28;20460;-69
2023/03/20 04:25:27;;;;;;;2.67;1.70;;;10.30;98.00;;;;;;5072670;28;20456;-69
2023/03/20 04:27:55;;;;;;;3.13;1.90;;;10.30;98.00;;;;;;5072242;28;20485;-70
2023/03/20 04:30:22;;;;;;;2.37;1.80;;;10.30;98.00;;;;;;5072558;28;20475;-71
2023/03/20 04:32:49;;;;;;;4.17;2.03;;;10.40;98.00;;;;;;5072181;28;20532;-70
2023/03/20 04:35:18;;;;;;;3.20;2.00;;;10.50;98.00;;;;;;5072511;28;20515;-70
2023/03/20 04:37:46;;;;;;;2.50;1.60;;;10.50;98.00;;;;;;5072418;28;20454;-70
2023/03/20 04:40:16;;;;;;;15.57;1.80;;;10.50;98.00;;;;;;5072356;28;20455;-69
2023/03/20 04:42:44;;;;;;;2.17;1.67;;;10.40;98.00;;;;;;5072287;28;20457;-70
2023/03/20 04:45:11;;;;;;;1.50;1.47;;;10.50;98.00;;;;;;5071161;28;20457;-69
2023/03/20 04:47:38;;;;;;;1.80;1.50;;;10.40;98.00;;;;;;5073152;28;20459;-69
2023/03/20 04:50:06;;;;;;;1.57;1.40;;;10.30;98.00;;;;;;5072726;28;20447;-70
2023/03/20 04:52:35;;;;;;;2.20;1.40;;;10.30;98.00;;;;;;5072850;28;20460;-70
2023/03/20 04:55:02;;;;;;;2.17;1.20;;;10.30;98.00;;;;;;5072440;28;20477;-69
2023/03/20 04:57:30;;;;;;;3.37;1.50;;;10.20;98.00;;;;;;5072129;28;20457;-70
2023/03/20 04:59:57;;;;;;;2.00;1.33;;;10.20;98.00;;;;;;5072204;28;20453;-69
2023/03/20 05:02:24;;;;;;;1.40;1.30;;;10.20;98.00;;;;;;5072130;28;20458;-71
2023/03/20 05:04:54;;;;;;;1.30;1.30;;;10.20;98.00;;;;;;5072391;28;20454;-68
2023/03/20 05:07:21;;;;;;;2.63;1.60;;;10.30;98.00;;;;;;5072035;28;20533;-68
2023/03/20 05:09:49;;;;;;;1.67;1.27;;;10.30;98.00;;;;;;5072401;28;20494;-70
2023/03/20 05:12:17;;;;;;;1.37;1.27;;;10.40;98.00;;;;;;5071140;28;20458;-69
2023/03/20 05:14:44;;;;;;;2.30;1.40;;;10.50;98.00;;;;;;5071791;28;20472;-70
2023/03/20 05:17:11;;;;;;;1.80;1.30;;;10.40;98.00;;;;;;5070028;28;20827;-69
2023/03/20 05:19:38;;;;;;;1.50;1.17;;;10.50;98.00;;;;;;5071756;28;20798;-70
2023/03/20 05:22:05;;;;;;;1.60;1.30;;;10.60;98.00;;;;;;5071617;28;20818;-70
2023/03/20 05:24:32;;;;;;;1.87;1.40;;;10.60;98.00;;;;;;5071758;28;20822;-70
2023/03/20 05:27:01;;;;;;;3.10;1.63;;;10.70;98.00;;;;;;5071402;28;20450;-69
2023/03/20 05:29:28;;;;;;;1.60;1.27;;;10.70;98.00;;;;;;5071258;28;20454;-69
2023/03/20 05:31:55;;;;;;;1.80;1.40;;;10.60;98.00;;;;;;5071581;28;20512;-69
2023/03/20 05:34:23;;;;;;;1.67;1.30;;;10.50;98.00;;;;;;5071428;28;20983;-69
2023/03/20 05:36:52;;;;;;;1.73;1.37;;;10.60;98.00;;;;;;5071343;28;20470;-68
2023/03/20 05:39:19;;;;;;;1.77;1.40;;;10.50;98.00;;;;;;5070923;28;20457;-70
2023/03/20 05:41:46;;;;;;;1.37;1.23;;;10.30;98.00;;;;;;5071297;28;20458;-69
2023/03/20 05:44:15;;;;;;;2.23;1.60;;;10.50;98.00;;;;;;5071019;28;21007;-69
2023/03/20 05:46:42;;;;;;;1.70;1.50;;;10.70;98.00;;;;;;5071153;28;20459;-70
2023/03/20 05:49:09;;;;;;;1.93;1.70;;;10.70;98.00;;;;;;5071224;28;20465;-68
2023/03/20 05:51:37;;;;;;;2.17;1.60;;;10.80;98.00;;;;;;5071297;28;20505;-71
2023/03/20 05:54:04;;;;;;;3.10;1.57;;;10.80;98.00;;;;;;5071041;28;21000;-68
2023/03/20 05:56:31;;;;;;;2.80;1.60;;;10.70;98.00;;;;;;5071220;28;20890;-70
2023/03/20 05:59:07;;;;;;;2.20;1.40;;;10.70;98.00;;;;;;5071141;28;20652;-69
2023/03/20 06:01:36;;;;;;;2.17;1.43;;;10.60;98.00;;;;;;5071251;28;20513;-69
2023/03/20 06:04:04;;;;;;;3.03;1.53;;;10.70;98.00;;;;;;5071436;28;20462;-69
2023/03/20 06:06:31;;;;;;;2.57;1.70;;;10.50;98.00;;;;;;5071329;28;20456;-70
2023/03/20 06:08:58;;;;;;;2.00;1.50;;;10.60;98.00;;;;;;5071020;28;20469;-70
2023/03/20 06:11:25;;;;;;;1.70;1.60;;;10.50;98.00;;;;;;5071035;28;20458;-70
2023/03/20 06:13:54;;;;;;;1.57;1.47;;;10.50;98.00;;;;;;5071024;28;20483;-68
2023/03/20 06:16:21;;;;;;;2.20;1.70;;;10.40;98.00;;;;;;5071316;28;20460;-69
2023/03/20 06:18:50;;;;;;;7.73;1.93;;;10.50;98.00;;;;;;5069762;28;20986;-70
2023/03/20 06:21:17;;;;;;;4.03;1.53;;;10.50;98.00;;;;;;5071280;28;20461;-68
2023/03/20 06:23:44;;;;;;;1.50;1.40;;;10.50;98.00;;;;;;5073299;28;20458;-71
2023/03/20 06:26:11;;;;;;;1.87;1.53;;;10.40;98.00;;;;;;5075001;28;20475;-71
2023/03/20 06:28:38;;;;;;;2.13;1.50;;;10.40;98.00;;;;;;5074896;28;20981;-71
2023/03/20 06:31:07;;;;;;;3.53;1.77;;;10.50;98.00;;;;;;5075076;28;20944;-69
2023/03/20 06:33:36;;;;;;;1.63;1.50;;;10.60;98.00;;;;;;5074654;28;20826;-69
2023/03/20 06:36:06;;;;;;;2.53;1.70;;;10.50;98.00;;;;;;5074620;28;20767;-69
2023/03/20 06:38:34;;;;;;;1.90;1.77;;;10.70;98.00;;;;;;5074595;28;20486;-68
2023/03/20 06:41:01;;;;;;;1.87;1.60;;;10.60;98.00;;;;;;5074791;28;20456;-70
2023/03/20 06:43:28;;;;;;;1.60;1.40;;;10.70;98.00;;;;;;5074660;28;20455;-70
2023/03/20 06:45:55;;;;;;;1.83;1.50;;;10.70;98.00;;;;;;5074638;28;20979;-69
2023/03/20 06:48:22;;;;;;;2.90;1.63;;;10.70;98.00;;;;;;5074331;28;20481;-70
2023/03/20 06:50:50;;;;;;;2.17;1.43;;;10.80;98.00;;;;;;5074355;28;20500;-69
2023/03/20 06:53:19;;;;;;;2.10;1.60;;;11.00;98.00;;;;;;5074410;28;20457;-70
2023/03/20 06:55:53;;;;;;;2.00;1.40;;;11.00;98.00;;;;;;5074156;28;20492;-71
2023/03/20 06:58:20;;;;;;;2.00;1.37;;;11.00;98.00;;;;;;5074869;28;20458;-69
2023/03/20 07:00:53;;;;;;;2.37;1.40;;;11.10;98.00;;;;;;5074581;28;20491;-66
2023/03/20 07:03:20;;;;;;;1.80;1.30;;;11.20;98.00;;;;;;5073744;28;20465;-65
2023/03/20 07:05:48;;;;;;;3.03;1.90;;;11.30;98.00;;;;;;5074292;28;20452;-64
2023/03/20 07:08:15;;;;;;;1.97;1.30;;;11.40;98.00;;;;;;5074356;28;20860;-64
2023/03/20 07:10:44;;;;;;;1.80;1.40;;;11.40;98.00;;;;;;5074232;28;20447;-65
2023/03/20 07:13:11;;;;;;;1.80;1.33;;;11.30;98.00;;;;;;5073854;28;20528;-64
2023/03/20 07:15:38;;;;;;;2.13;1.30;;;11.40;98.00;;;;;;5072822;28;20490;-65
2023/03/20 07:18:06;;;;;;;2.27;1.43;;;11.40;98.00;;;;;;5073859;28;20462;-64
2023/03/20 07:20:33;;;;;;;1.63;1.20;;;11.40;98.00;;;;;;5074109;28;20467;-64
2023/03/20 07:23:00;;;;;;;1.20;1.10;;;11.50;98.00;;;;;;5073954;28;20457;-65
2023/03/20 07:25:27;;;;;;;2.77;1.53;;;11.40;98.00;;;;;;5073924;28;20468;-65
2023/03/20 07:27:55;;;;;;;1.67;1.30;;;11.50;98.00;;;;;;5073630;28;20458;-64
2023/03/20 07:30:22;;;;;;;2.00;1.57;;;11.50;98.00;;;;;;5073737;28;21029;-65
2023/03/20 07:32:50;;;;;;;1.30;1.20;;;11.50;98.00;;;;;;5073793;28;20669;-64
2023/03/20 07:35:18;;;;;;;2.60;1.60;;;11.80;98.00;;;;;;5071802;28;20490;-64
2023/03/20 07:37:45;;;;;;;1.30;1.30;;;11.90;98.00;;;;;;5073556;28;20464;-65
2023/03/20 07:40:13;;;;;;;1.30;1.20;;;12.00;98.00;;;;;;5073709;28;20828;-64
2023/03/20 07:42:40;;;;;;;2.40;1.27;;;11.80;98.00;;;;;;5071990;28;20788;-65
2023/03/20 07:45:10;;;;;;;1.60;1.27;;;11.70;98.00;;;;;;5073414;28;20451;-65
2023/03/20 07:47:37;;;;;;;1.93;1.37;;;11.70;98.00;;;;;;5073064;28;20464;-64
2023/03/20 07:50:04;;;;;;;2.57;1.50;;;11.70;98.00;;;;;;5072078;28;20460;-64
2023/03/20 07:52:32;;;;;;;1.27;1.10;;;11.80;98.00;;;;;;5073181;28;20461;-64
2023/03/20 07:54:59;;;;;;;2.27;1.30;;;11.70;98.00;;;;;;5073101;28;20482;-64
2023/03/20 07:57:26;;;;;;;1.50;1.20;;;11.70;98.00;;;;;;5073083;28;20460;-65
2023/03/20 07:59:53;;;;;;;1.90;1.30;;;11.70;98.00;;;;;;5072043;28;20457;-65
2023/03/20 08:02:21;;;;;;;2.37;1.60;;;11.70;98.00;;;;;;5073399;28;20459;-65
2023/03/20 08:04:48;;;;;;;1.80;1.43;;;11.80;98.00;;;;;;5073447;28;20456;-64
2023/03/20 08:07:15;;;;;;;1.73;1.40;;;12.00;98.00;;;;;;5073520;28;20458;-65
2023/03/20 08:09:42;;;;;;;2.10;1.33;;;12.10;98.00;;;;;;5072669;28;20601;-65
2023/03/20 08:12:09;;;;;;;1.60;1.30;;;12.10;98.00;;;;;;5072169;28;20469;-65
2023/03/20 08:14:38;;;;;;;1.70;1.30;;;12.20;98.00;;;;;;5071301;28;20485;-63
2023/03/20 08:17:05;;;;;;;1.40;1.20;;;12.20;98.00;;;;;;5072723;28;20460;-64
2023/03/20 08:19:35;;;;;;;1.50;1.30;;;12.20;98.00;;;;;;5072539;28;20556;-65
2023/03/20 08:22:02;;;;;;;1.30;1.30;;;12.30;98.00;;;;;;5083045;28;20455;-64
2023/03/20 08:24:39;;;;;;;2.30;1.73;;;12.50;98.00;;;;;;5089622;28;20471;-64
2023/03/20 08:27:06;;;;;;;2.10;1.40;;;12.70;98.00;;;;;;5091886;28;20544;-64
2023/03/20 08:29:33;;;;;;;1.83;1.30;;;12.80;98.00;;;;;;5091484;28;20835;-65
2023/03/20 08:32:00;;;;;;;1.80;1.10;;;12.90;98.00;;;;;;5091244;28;20664;-64
2023/03/20 08:34:28;;;;;;;1.67;1.30;;;12.80;98.00;;;;;;5091167;28;20656;-65
2023/03/20 08:36:56;;;;;;;1.70;1.30;;;12.80;98.00;;;;;;5092660;28;20462;-64
2023/03/20 08:39:23;;;;;;;1.60;1.30;;;12.80;98.00;;;;;;5092266;28;20459;-64
2023/03/20 08:41:50;;;;;;;1.50;1.20;;;12.60;98.00;;;;;;5092251;28;20466;-65
2023/03/20 08:44:17;;;;;;;2.63;1.33;;;12.60;98.00;;;;;;5092473;28;20458;-65
2023/03/20 08:46:46;;;;;;;2.07;1.50;;;12.80;98.00;;;;;;5091447;28;20465;-64
2023/03/20 08:49:13;;;;;;;1.87;1.63;;;12.80;98.00;;;;;;5092246;28;20943;-63
2023/03/20 08:51:41;;;;;;;3.30;1.47;;;12.70;98.00;;;;;;5092282;28;20456;-64
2023/03/20 08:54:11;;;;;;;1.83;1.30;;;12.80;98.00;;;;;;5092008;28;20458;-64
2023/03/20 08:56:38;;;;;;;1.70;1.40;;;12.90;98.00;;;;;;5090884;28;20465;-64
2023/03/20 08:59:05;;;;;;;2.13;1.40;;;13.00;98.00;;;;;;5092086;28;20795;-64
2023/03/20 09:01:33;;;;;;;1.60;1.20;;;13.00;98.00;;;;;;5092309;28;20473;-64
2023/03/20 09:04:00;;;;;;;1.93;1.40;;;13.20;98.00;;;;;;5092283;28;20515;-64
2023/03/20 09:06:27;;;;;;;1.47;1.23;;;13.30;98.00;;;;;;5090755;28;21015;-64
2023/03/20 09:08:55;;;;;;;2.07;1.43;;;13.40;98.00;;;;;;5091811;28;20469;-64
2023/03/20 09:11:24;;;;;;;2.03;1.40;;;13.40;98.00;;;;;;5092010;28;20579;-64
2023/03/20 09:13:51;;;;;;;1.80;1.40;;;13.40;98.00;;;;;;5091709;28;20462;-64
2023/03/20 09:16:18;;;;;;;1.87;1.30;;;13.30;98.00;;;;;;5091855;28;20561;-64
2023/03/20 09:18:45;;;;;;;1.30;1.23;;;13.00;98.00;;;;;;5069737;28;20863;-64
2023/03/20 09:21:13;;;;;;;1.83;1.30;;;13.10;98.00;;;;;;5072434;28;20484;-65
2023/03/20 09:23:40;;;;;;;2.37;1.70;;;13.20;98.00;;;;;;5091654;28;20461;-64
2023/03/20 09:26:07;;;;;;;1.30;1.30;;;13.30;98.00;;;;;;5091560;28;20458;-65
2023/03/20 09:28:35;;;;;;;2.10;1.40;;;13.40;98.00;;;;;;5091464;28;20450;-63
2023/03/20 09:31:03;;;;;;;5.60;1.30;;;13.50;98.00;;;;;;5090920;28;20462;-64
2023/03/20 09:33:30;;;;;;;4.27;1.87;;;13.50;98.00;;;;;;5090122;28;20458;-65
2023/03/20 09:35:57;;;;;;;2.30;1.70;;;13.50;98.00;;;;;;5091258;28;20517;-65
2023/03/20 09:38:24;;;;;;;2.80;1.50;;;13.50;98.00;;;;;;5090409;28;20459;-63
2023/03/20 09:40:54;;;;;;;2.07;1.50;;;13.50;98.00;;;;;;5084814;28;20453;-64
2023/03/20 09:43:31;;;;;;;2.80;1.80;;;13.60;98.00;;;;;;5071250;28;20873;-65
2023/03/20 09:46:08;;;;;;;2.43;1.40;;;13.60;98.00;;;;;;5071172;28;20876;-65
2023/03/20 09:48:41;;;;;;;1.57;1.50;;;13.60;98.00;;;;;;5071120;28;20637;-65
2023/03/20 09:51:21;;;;;;;1.87;1.47;;;13.50;98.00;;;;;;5090429;28;20510;-64
2023/03/20 09:53:53;;;;;;;1.93;1.47;;;13.50;98.00;;;;;;5074325;28;20456;-64
2023/03/20 09:56:24;;;;;;;1.60;1.53;;;13.30;98.00;;;;;;5070205;28;20555;-64
2023/03/20 09:58:55;;;;;;;1.93;1.43;;;13.40;98.00;;;;;;5070886;28;20463;-65
2023/03/20 10:01:30;;;;;;;1.40;1.37;;;13.40;98.00;;;;;;5079098;28;20820;-64
2023/03/20 10:03:59;;;;;;;2.13;1.63;;;13.40;98.00;;;;;;5091150;28;20486;-64
2023/03/20 10:06:26;;;;;;;1.73;1.40;;;13.40;98.00;;;;;;5091337;28;20857;-64
2023/03/20 10:08:54;;;;;;;1.77;1.40;;;13.50;98.00;;;;;;5089939;28;20458;-64
2023/03/20 10:11:41;;;;;;;2.00;1.50;;;13.50;98.00;;;;;;5091015;28;20499;-65
2023/03/20 10:14:20;;;;;;;2.73;1.60;;;13.60;98.00;;;;;;5090999;28;20446;-64
2023/03/20 10:17:06;;;;;;;3.17;1.90;;;13.60;98.00;;;;;;5090906;28;20493;-64
2023/03/20 10:19:42;;;;;;;1.63;1.30;;;13.70;98.00;;;;;;5090984;28;20459;-63
2023/03/20 10:22:17;;;;;;;2.70;1.33;;;13.90;98.00;;;;;;5090864;28;20461;-64
2023/03/20 10:24:52;;;;;;;1.67;1.40;;;13.90;98.00;;;;;;5090951;28;20870;-64
2023/03/20 10:27:23;;;;;;;1.33;1.13;;;13.70;98.00;;;;;;5091026;28;20546;-66
2023/03/20 10:30:01;;;;;;;1.30;1.20;;;13.70;98.00;;;;;;5090757;28;20626;-65
2023/03/20 10:32:36;;;;;;;1.40;1.23;;;13.60;98.00;;;;;;5090791;28;20458;-65
2023/03/20 10:35:20;;;;;;;1.53;1.33;;;13.60;98.00;;;;;;5090654;28;20508;-64
2023/03/20 10:38:01;;;;;;;1.50;1.40;;;13.50;98.00;;;;;;5090874;28;20461;-64
2023/03/20 10:40:34;;;;;;;2.53;1.50;;;13.50;98.00;;;;;;5090773;28;20466;-66
2023/03/20 10:43:04;;;;;;;2.27;1.60;;;13.60;98.00;;;;;;5074752;28;20460;-65
2023/03/20 10:45:39;;;;;;;1.90;1.50;;;13.60;98.00;;;;;;5070821;28;20521;-66
2023/03/20 10:48:16;;;;;;;3.10;1.80;;;13.50;98.00;;;;;;5070781;28;20455;-65
2023/03/20 10:50:47;;;;;;;2.17;1.60;;;13.50;98.00;;;;;;5079865;28;20507;-65
2023/03/20 10:53:25;;;;;;;4.37;1.50;;;13.50;98.00;;;;;;5090813;28;20481;-65
2023/03/20 10:55:57;;;;;;;1.70;1.40;;;13.50;98.00;;;;;;5090700;28;20578;-65
2023/03/20 10:58:28;;;;;;;2.30;1.57;;;13.50;98.00;;;;;;5090963;28;20464;-66
2023/03/20 11:00:58;;;;;;;1.80;1.40;;;13.40;98.00;;;;;;5089727;28;20454;-66
2023/03/20 11:03:30;;;;;;;2.53;1.70;;;13.30;98.00;;;;;;5090783;28;20458;-65
2023/03/20 11:06:01;;;;;;;3.10;1.80;;;13.20;98.00;;;;;;5090520;28;20470;-65
2023/03/20 11:08:35;;;;;;;1.50;1.40;;;13.20;98.00;;;;;;5078103;28;20461;-65
2023/03/20 11:11:05;;;;;;;3.50;1.43;;;13.20;98.00;;;;;;5072814;28;20502;-64
2023/03/20 11:13:34;;;;;;;1.83;1.50;;;13.20;98.00;;;;;;5073988;28;21100;-66
2023/03/20 11:16:19;;;;;;;1.90;1.70;;;13.30;98.00;;;;;;5074766;28;20484;-65
2023/03/20 11:18:49;;;;;;;2.07;1.50;;;13.40;98.00;;;;;;5074335;28;20498;-66
2023/03/20 11:21:20;;;;;;;2.30;1.57;;;13.40;98.00;;;;;;5074082;28;20463;-65
2023/03/20 11:23:49;;;;;;;1.97;1.57;;;13.50;98.00;;;;;;5073761;28;20818;-65
2023/03/20 11:26:17;;;;;;;2.07;1.50;;;13.60;98.00;;;;;;5073854;28;20446;-66
2023/03/20 11:28:50;;;;;;;1.87;1.70;;;13.60;98.00;;;;;;5073610;28;20464;-66
2023/03/20 11:31:20;;;;;;;2.17;1.30;;;13.70;98.00;;;;;;5073827;28;20813;-66
2023/03/20 11:34:09;;;;;;;2.10;1.47;;;13.80;98.00;;;;;;5073524;28;20465;-66
2023/03/20 11:36:39;;;;;;;1.70;1.40;;;13.80;98.00;;;;;;5073394;28;20487;-65
2023/03/20 11:39:11;;;;;;;2.30;1.63;;;13.70;98.00;;;;;;5073890;28;20484;-65
2023/03/20 11:41:46;;;;;;;1.93;1.47;;;13.70;98.00;;;;;;5073435;28;20538;-66
2023/03/20 11:44:24;;;;;;;2.27;1.40;;;13.90;98.00;;;;;;5073370;28;20520;-66
2023/03/20 11:47:03;;;;;;;3.13;1.70;;;14.00;98.00;;;;;;5073277;28;20513;-65
2023/03/20 11:49:33;;;;;;;2.13;1.60;;;13.90;98.00;;;;;;5073451;28;20866;-65
2023/03/20 11:52:15;;;;;;;1.70;1.50;;;13.90;98.00;;;;;;5073327;28;20469;-66
2023/03/20 11:54:50;;;;;;;2.17;1.60;;;13.90;98.00;;;;;;5073039;28;20472;-65
2023/03/20 11:57:31;;;;;;;3.83;1.60;;;13.80;98.00;;;;;;5073321;28;20482;-66
2023/03/20 12:00:02;;;;;;;1.60;1.40;;;13.80;98.00;;;;;;5071610;28;20457;-65
2023/03/20 12:02:30;;;;;;;2.33;1.60;;;13.80;98.00;;;;;;5073460;28;20452;-64
2023/03/20 12:05:01;;;;;;;4.03;1.70;;;13.70;98.00;;;;;;5073133;28;20471;-65
2023/03/20 12:07:34;;;;;;;1.93;1.50;;;13.50;98.00;;;;;;5072964;28;20492;-65
2023/03/20 12:10:04;;;;;;;2.90;1.73;;;13.50;98.00;;;;;;5072687;28;20470;-65
2023/03/20 12:12:40;;;;;;;2.00;1.60;;;13.60;98.00;;;;;;5104692;28;21003;-65
2023/03/20 12:15:17;;;;;;;3.33;1.83;;;13.80;98.00;;;;;;5103976;28;20455;-65
2023/03/20 12:17:50;;;;;;;2.73;1.60;;;13.90;98.00;;;;;;5072705;28;20459;-66
2023/03/20 12:20:32;;;;;;;2.93;1.70;;;14.00;98.00;;;;;;5072443;28;20465;-65
2023/03/20 12:23:10;;;;;;;3.23;2.10;;;14.10;98.00;;;;;;5102865;28;20511;-65
2023/03/20 12:25:51;;;;;;;3.23;2.13;;;14.20;98.00;;;;;;5072503;28;20492;-65
2023/03/20 12:28:24;;;;;;;3.70;2.00;;;14.20;98.00;;;;;;5072620;28;20452;-65
2023/03/20 12:31:17;;;;;;;3.90;2.00;;;14.10;98.00;;;;;;5072402;28;21042;-65
2023/03/20 12:33:50;;;;;;;3.47;2.20;;;14.00;98.00;;;;;;5072272;28;20463;-65
2023/03/20 12:36:27;;;;;;;3.10;1.97;;;14.00;98.00;;;;;;5072335;28;20478;-65
2023/03/20 12:38:54;;;;;;;3.63;1.90;;;13.90;98.00;;;;;;5070882;28;20491;-66
2023/03/20 12:41:25;;;;;;;3.37;2.33;;;13.80;98.00;;;;;;5071162;28;20459;-64
2023/03/20 12:44:18;;;;;;;4.23;2.40;;;13.70;98.00;;;;;;5070560;28;20496;-65
2023/03/20 12:46:51;;;;;;;4.60;2.67;;;13.70;98.00;;;;;;5071350;28;20467;-65
2023/03/20 12:49:29;;;;;;;4.50;2.63;;;14.00;98.00;;;;;;5071151;28;20460;-65
2023/03/20 12:52:09;;;;;;;3.40;2.43;;;14.30;98.00;;;;;;5071295;28;20470;-64
2023/03/20 12:54:54;;;;;;;4.30;2.40;;;14.60;98.00;;;;;;5070807;28;20959;-65
2023/03/20 12:57:28;;;;;;;5.53;2.90;;;14.80;98.00;;;;;;5071043;28;20571;-65
2023/03/20 13:00:11;;;;;;;2.77;1.90;;;14.90;98.00;;;;;;5070294;28;20465;-66
2023/03/20 13:02:50;;;;;;;3.37;2.20;;;15.50;98.00;;;;;;5070186;28;20456;-65
2023/03/20 13:05:32;;;;;;;3.63;2.13;;;15.60;98.00;;;;;;5071136;28;20485;-65
2023/03/20 13:08:22;;;;;;;3.57;2.10;;;15.60;98.00;;;;;;5070828;28;20476;-65
2023/03/20 13:11:00;;;;;;;3.27;2.00;;;15.60;98.00;;;;;;5070834;28;20968;-65